Time;durP1;ratioP1;P1;durP2;ratioP2;P2;SDS_P1;SDS_P2;PMS_P1;PMS_P2;Temp;Humidity;BMP_temperature;BMP_pressure;BME280_temperature;BME280_humidity;BME280_pressure;Samples;Min_cycle;Max_cycle;Signal;HPM_P1;HPM_P2
2022/04/16 00:01:20;;;;;;;;;;;7.40;99.90;;;;;;5157169;27;19976;-71
2022/04/16 00:03:46;;;;;;;;;;;7.90;99.90;;;;;;5157175;27;19927;-71
2022/04/16 00:06:11;;;;;;;;;;;7.10;99.90;;;;;;5138672;27;19929;-71
2022/04/16 00:08:37;;;;;;;;;;;7.50;99.90;;;;;;5138493;27;19974;-68
2022/04/16 00:11:06;;;;;;;;;;;7.30;99.90;;;;;;5156862;27;19973;-70
2022/04/16 00:13:32;;;;;;;;;;;8.20;99.90;;;;;;5156705;27;19923;-69
2022/04/16 00:15:58;;;;;;;;;;;8.20;99.90;;;;;;5138559;27;20031;-68
2022/04/16 00:18:24;;;;;;;;;;;7.30;99.90;;;;;;5138644;27;19949;-70
2022/04/16 00:20:49;;;;;;;;;;;7.30;99.90;;;;;;5138391;27;19923;-72
2022/04/16 00:23:16;;;;;;;;;;;7.30;99.90;;;;;;5156756;27;19992;-71
2022/04/16 00:25:43;;;;;;;;;;;7.30;99.90;;;;;;5138351;27;19922;-70
2022/04/16 00:28:08;;;;;;;;;;;7.30;99.90;;;;;;5156439;27;20286;-69
2022/04/16 00:30:37;;;;;;;;;;;7.30;99.90;;;;;;5137674;27;19931;-69
2022/04/16 00:33:04;;;;;;;;;;;7.30;99.90;;;;;;5156447;27;19976;-69
2022/04/16 00:35:29;;;;;;;;;;;7.30;99.90;;;;;;5138001;27;20503;-69
2022/04/16 00:37:55;;;;;;;;;;;7.30;99.90;;;;;;5137886;27;20017;-69
2022/04/16 00:40:21;;;;;;;;;;;7.30;99.90;;;;;;5156401;27;20273;-70
2022/04/16 00:42:46;;;;;;;;;;;7.40;99.90;;;;;;5136778;27;20013;-69
2022/04/16 00:45:12;;;;;;;;;;;7.40;99.90;;;;;;5156201;27;19923;-70
2022/04/16 00:47:38;;;;;;;;;;;7.40;99.90;;;;;;5156630;27;19923;-69
2022/04/16 00:50:05;;;;;;;;;;;8.70;99.90;;;;;;5137940;27;19930;-70
2022/04/16 00:52:30;;;;;;;;;;;7.40;99.90;;;;;;5137671;27;20407;-71
2022/04/16 00:54:56;;;;;;;;;;;8.50;99.90;;;;;;5137752;27;19924;-71
2022/04/16 00:57:23;;;;;;;;;;;8.20;99.90;;;;;;5156221;27;20019;-70
2022/04/16 00:59:48;;;;;;;;;;;7.50;99.90;;;;;;5137848;27;20331;-69
2022/04/16 01:02:14;;;;;;;;;;;7.40;99.90;;;;;;5137879;27;19923;-70
2022/04/16 01:04:40;;;;;;;;;;;7.40;99.90;;;;;;5156312;27;19923;-69
2022/04/16 01:07:06;;;;;;;;;;;7.40;99.90;;;;;;5156199;27;19985;-69
2022/04/16 01:09:32;;;;;;;;;;;7.50;99.90;;;;;;5137659;27;20385;-69
2022/04/16 01:11:58;;;;;;;;;;;7.40;99.90;;;;;;5156007;27;19966;-69
2022/04/16 01:14:25;;;;;;;;;;;7.50;99.90;;;;;;5137238;27;20362;-72
2022/04/16 01:16:55;;;;;;;;;;;7.50;99.90;;;;;;5156155;27;19930;-71
2022/04/16 01:19:21;;;;;;;;;;;7.50;99.90;;;;;;5137598;27;19923;-71
2022/04/16 01:21:48;;;;;;;;;;;8.30;99.90;;;;;;5156072;27;19943;-69
2022/04/16 01:24:14;;;;;;;;;;;7.50;99.90;;;;;;5155807;27;20397;-69
2022/04/16 01:26:41;;;;;;;;;;;8.40;99.90;;;;;;5155734;27;19923;-69
2022/04/16 01:29:08;;;;;;;;;;;7.60;99.90;;;;;;5137446;27;19933;-70
2022/04/16 01:31:33;;;;;;;;;;;7.60;99.90;;;;;;5155855;27;19923;-71
2022/04/16 01:33:59;;;;;;;;;;;8.50;99.90;;;;;;5155699;27;19923;-70
2022/04/16 01:36:29;;;;;;;;;;;7.60;99.90;;;;;;5137462;27;19927;-71
2022/04/16 01:38:56;;;;;;;;;;;8.10;99.90;;;;;;5120077;27;19927;-71
2022/04/16 01:41:21;;;;;;;;;;;7.70;99.90;;;;;;5137321;27;19923;-70
2022/04/16 01:43:47;;;;;;;;;;;7.70;99.90;;;;;;5137156;27;20021;-71
2022/04/16 01:46:13;;;;;;;;;;;7.90;99.90;;;;;;5137345;27;19997;-70
2022/04/16 01:48:38;;;;;;;;;;;7.80;99.90;;;;;;5137343;27;19923;-71
2022/04/16 01:51:05;;;;;;;;;;;7.80;99.90;;;;;;5155614;27;19930;-69
2022/04/16 01:53:31;;;;;;;;;;;8.70;99.90;;;;;;5136749;27;19923;-69
2022/04/16 01:55:57;;;;;;;;;;;7.90;99.90;;;;;;5136480;27;19926;-69
2022/04/16 01:58:22;;;;;;;;;;;7.90;99.90;;;;;;5137129;27;19930;-72
2022/04/16 02:00:49;;;;;;;;;;;7.90;99.90;;;;;;5137286;27;19930;-71
2022/04/16 02:03:14;;;;;;;;;;;8.40;99.90;;;;;;5136981;27;19929;-71
2022/04/16 02:05:40;;;;;;;;;;;8.90;99.90;;;;;;5155393;27;20301;-72
2022/04/16 02:08:07;;;;;;;;;;;7.40;99.90;;;;;;5155296;27;19923;-70
2022/04/16 02:10:34;;;;;;;;;;;7.90;99.90;;;;;;5120194;27;19923;-70
2022/04/16 02:13:00;;;;;;;;;;;7.20;99.90;;;;;;5136787;27;19923;-69
2022/04/16 02:15:27;;;;;;;;;;;7.90;99.90;;;;;;5136780;27;20054;-72
2022/04/16 02:17:56;;;;;;;;;;;7.90;99.90;;;;;;5119242;27;19923;-70
2022/04/16 02:20:23;;;;;;;;;;;7.90;99.90;;;;;;5155211;27;20370;-68
2022/04/16 02:22:49;;;;;;;;;;;7.90;99.90;;;;;;5136616;27;19971;-68
2022/04/16 02:25:17;;;;;;;;;;;7.90;99.90;;;;;;5136619;27;19927;-71
2022/04/16 02:27:43;;;;;;;;;;;7.90;99.90;;;;;;5155025;27;19923;-69
2022/04/16 02:30:12;;;;;;;;;;;7.90;99.90;;;;;;5154692;27;20386;-69
2022/04/16 02:32:39;;;;;;;;;;;7.90;99.90;;;;;;5155025;27;19923;-68
2022/04/16 02:35:08;;;;;;;;;;;7.80;99.90;;;;;;5155118;27;19927;-68
2022/04/16 02:37:34;;;;;;;;;;;6.50;99.90;;;;;;5154953;27;20409;-69
2022/04/16 02:40:00;;;;;;;;;;;7.80;99.90;;;;;;5136801;27;19929;-69
2022/04/16 02:42:25;;;;;;;;;;;8.40;99.90;;;;;;5136683;27;20375;-69
2022/04/16 02:47:35;;;;;;;;;;;7.80;99.90;;;;;;5136731;27;19934;-70
2022/04/16 02:50:01;;;;;;;;;;;8.00;99.90;;;;;;5155038;27;20285;-71
2022/04/16 02:52:26;;;;;;;;;;;8.40;99.90;;;;;;5136130;27;19930;-70
2022/04/16 02:54:54;;;;;;;;;;;8.30;99.90;;;;;;5154877;27;19923;-69
2022/04/16 02:57:20;;;;;;;;;;;7.80;99.90;;;;;;5154770;27;19923;-71
2022/04/16 02:59:46;;;;;;;;;;;7.80;99.90;;;;;;5119348;27;19948;-70
2022/04/16 03:02:12;;;;;;;;;;;7.80;99.90;;;;;;5136408;27;20297;-70
2022/04/16 03:04:38;;;;;;;;;;;7.70;99.90;;;;;;5154820;27;19929;-68
2022/04/16 03:07:04;;;;;;;;;;;8.30;99.90;;;;;;5158365;27;19923;-70
2022/04/16 03:09:29;;;;;;;;;;;7.70;99.90;;;;;;5140204;27;19930;-70
2022/04/16 03:11:55;;;;;;;;;;;8.40;99.90;;;;;;5158297;27;19934;-70
2022/04/16 03:19:51;;;;;;;;;;;9.10;99.90;;;;;;5054033;28;19947;-69
2022/04/16 03:22:17;;;;;;;;;;;8.20;99.90;;;;;;5053954;28;19924;-70
2022/04/16 03:24:42;;;;;;;;;;;7.70;99.90;;;;;;5037531;28;19924;-72
2022/04/16 03:27:08;;;;;;;;;;;7.70;99.90;;;;;;5037538;28;19925;-69
2022/04/16 03:29:37;;;;;;;;;;;7.70;99.90;;;;;;5037043;28;20304;-69
2022/04/16 03:32:03;;;;;;;;;;;8.70;99.90;;;;;;5053911;28;19983;-70
2022/04/16 03:34:29;;;;;;;;;;;7.70;99.90;;;;;;5036743;28;20368;-69
2022/04/16 03:36:54;;;;;;;;;;;7.70;99.90;;;;;;5053860;28;19927;-70
2022/04/16 03:39:20;;;;;;;;;;;7.70;99.90;;;;;;5053755;28;20372;-70
2022/04/16 03:41:47;;;;;;;;;;;7.70;99.90;;;;;;5053598;28;19959;-69
2022/04/16 03:44:13;;;;;;;;;;;8.00;99.90;;;;;;5053704;28;19963;-69
2022/04/16 03:46:38;;;;;;;;;;;7.70;99.90;;;;;;5053525;28;19924;-69
2022/04/16 03:49:04;;;;;;;;;;;7.60;99.90;;;;;;5053649;28;20011;-70
2022/04/16 03:51:29;;;;;;;;;;;7.60;99.90;;;;;;5053413;28;20428;-70
2022/04/16 03:53:55;;;;;;;;;;;7.80;99.90;;;;;;5077456;28;19927;-69
2022/04/16 04:01:49;;;;;;;;;;;7.60;99.90;;;;;;5116035;28;19930;-70
2022/04/16 04:04:14;;;;;;;;;;;8.20;99.90;;;;;;5115108;28;20298;-69
2022/04/16 04:06:40;;;;;;;;;;;7.70;99.90;;;;;;5114943;28;19928;-68
2022/04/16 04:09:06;;;;;;;;;;;7.60;99.90;;;;;;5115217;28;19923;-70
2022/04/16 04:11:32;;;;;;;;;;;7.60;99.90;;;;;;5116122;28;19924;-70
2022/04/16 04:13:58;;;;;;;;;;;7.60;99.90;;;;;;5115832;28;19924;-68
2022/04/16 04:16:23;;;;;;;;;;;8.50;99.90;;;;;;5115642;28;19924;-69
2022/04/16 04:18:49;;;;;;;;;;;7.70;99.90;;;;;;5114715;28;19981;-69
2022/04/16 04:21:15;;;;;;;;;;;7.70;99.90;;;;;;5115645;28;19974;-68
2022/04/16 04:23:40;;;;;;;;;;;8.00;99.90;;;;;;5114660;28;19992;-70
2022/04/16 04:26:06;;;;;;;;;;;8.80;99.90;;;;;;5115849;28;19924;-69
2022/04/16 04:28:31;;;;;;;;;;;7.40;99.90;;;;;;5114758;28;20415;-71
2022/04/16 04:30:57;;;;;;;;;;;7.70;99.90;;;;;;5126007;27;20006;-70
2022/04/16 04:33:22;;;;;;;;;;;8.20;99.90;;;;;;5135880;27;19923;-71
2022/04/16 04:35:50;;;;;;;;;;;7.70;99.90;;;;;;5135910;27;19957;-71
2022/04/16 04:38:15;;;;;;;;;;;7.70;99.90;;;;;;5135754;27;19934;-69
2022/04/16 04:40:41;;;;;;;;;;;8.00;99.90;;;;;;5136006;27;19927;-70
2022/04/16 04:43:07;;;;;;;;;;;7.70;99.90;;;;;;5135874;27;19981;-71
2022/04/16 04:45:33;;;;;;;;;;;7.70;99.90;;;;;;5135855;27;19976;-69
2022/04/16 04:47:58;;;;;;;;;;;7.70;99.90;;;;;;5135766;27;20387;-68
2022/04/16 04:50:24;;;;;;;;;;;7.70;99.90;;;;;;5135658;27;19985;-68
2022/04/16 04:52:49;;;;;;;;;;;7.80;99.90;;;;;;5135848;27;19924;-69
2022/04/16 04:55:15;;;;;;;;;;;7.90;99.90;;;;;;5135744;27;19924;-70
2022/04/16 04:57:42;;;;;;;;;;;7.90;99.90;;;;;;5135749;27;19924;-70
2022/04/16 05:00:09;;;;;;;;;;;7.70;99.90;;;;;;5117372;27;20014;-71
2022/04/16 05:02:45;;;;;;;;;;;7.60;99.90;;;;;;5135462;27;19931;-68
2022/04/16 05:05:10;;;;;;;;;;;7.60;99.90;;;;;;5135399;27;19930;-71
2022/04/16 05:07:36;;;;;;;;;;;6.50;99.90;;;;;;5135227;27;19923;-68
2022/04/16 05:10:03;;;;;;;;;;;7.60;99.90;;;;;;5117446;27;19962;-69
2022/04/16 05:12:28;;;;;;;;;;;7.60;99.90;;;;;;5135352;27;19923;-69
2022/04/16 05:14:54;;;;;;;;;;;7.60;99.90;;;;;;5116939;27;20603;-70
2022/04/16 05:17:19;;;;;;;;;;;7.80;99.90;;;;;;5134277;27;19972;-69
2022/04/16 05:19:45;;;;;;;;;;;7.60;99.90;;;;;;5135168;27;20045;-69
2022/04/16 05:22:10;;;;;;;;;;;7.50;99.90;;;;;;5117054;27;19927;-70
2022/04/16 05:24:36;;;;;;;;;;;7.50;99.90;;;;;;5135291;27;19923;-69
2022/04/16 05:27:02;;;;;;;;;;;8.20;99.90;;;;;;5135190;27;19923;-70
2022/04/16 05:29:48;;;;;;;;;;;7.50;99.90;;;;;;5116561;27;20439;-69
2022/04/16 05:32:16;;;;;;;;;;;7.50;99.90;;;;;;5108181;27;20293;-70
2022/04/16 05:34:42;;;;;;;;;;;7.50;99.90;;;;;;5134763;27;19937;-69
2022/04/16 05:37:07;;;;;;;;;;;7.50;99.90;;;;;;5116000;27;20018;-69
2022/04/16 05:39:33;;;;;;;;;;;7.40;99.90;;;;;;5135044;27;20022;-69
2022/04/16 05:41:58;;;;;;;;;;;7.40;99.90;;;;;;5116669;27;20034;-69
2022/04/16 05:44:24;;;;;;;;;;;7.70;99.90;;;;;;5134837;27;19923;-67
2022/04/16 05:46:50;;;;;;;;;;;7.40;99.90;;;;;;5134849;27;20018;-71
2022/04/16 05:49:15;;;;;;;;;;;7.40;99.90;;;;;;5133771;27;19928;-71
2022/04/16 05:51:41;;;;;;;;;;;7.40;99.90;;;;;;5134536;27;19923;-69
2022/04/16 05:54:06;;;;;;;;;;;7.40;99.90;;;;;;5134737;27;19934;-70
2022/04/16 05:56:33;;;;;;;;;;;7.50;99.90;;;;;;5134888;27;19945;-69
2022/04/16 05:59:00;;;;;;;;;;;7.60;99.90;;;;;;5134747;28;19923;-69
2022/04/16 06:01:26;;;;;;;;;;;7.40;99.90;;;;;;5134549;28;20401;-72
2022/04/16 06:03:51;;;;;;;;;;;7.70;99.90;;;;;;5134577;28;20022;-69
2022/04/16 06:06:17;;;;;;;;;;;7.90;99.90;;;;;;5134460;28;19924;-69
2022/04/16 06:08:42;;;;;;;;;;;7.60;99.90;;;;;;5134774;28;20301;-69
2022/04/16 06:11:08;;;;;;;;;;;7.40;99.90;;;;;;5116054;28;19923;-68
2022/04/16 06:13:34;;;;;;;;;;;7.40;99.90;;;;;;5134570;28;19946;-68
2022/04/16 06:16:00;;;;;;;;;;;8.10;99.90;;;;;;5134228;28;20382;-69
2022/04/16 06:18:26;;;;;;;;;;;7.60;99.90;;;;;;5099503;28;19927;-69
2022/04/16 06:20:51;;;;;;;;;;;8.50;99.90;;;;;;5134286;28;20037;-70
2022/04/16 06:23:18;;;;;;;;;;;7.80;99.90;;;;;;5134303;28;19928;-70
2022/04/16 06:25:44;;;;;;;;;;;7.80;99.90;;;;;;5116538;28;19931;-72
2022/04/16 06:28:10;;;;;;;;;;;7.50;99.90;;;;;;5116157;28;19927;-69
2022/04/16 06:30:35;;;;;;;;;;;7.40;99.90;;;;;;5112712;28;19928;-71
2022/04/16 06:33:01;;;;;;;;;;;7.50;99.90;;;;;;5132765;28;19923;-71
2022/04/16 06:35:27;;;;;;;;;;;8.40;99.90;;;;;;5134079;28;20401;-69
2022/04/16 06:37:52;;;;;;;;;;;7.50;99.90;;;;;;5134223;28;20496;-70
2022/04/16 06:40:18;;;;;;;;;;;7.50;99.90;;;;;;5117231;27;20370;-70
2022/04/16 06:42:44;;;;;;;;;;;7.50;99.90;;;;;;5138269;27;19923;-70
2022/04/16 06:45:10;;;;;;;;;;;7.60;99.90;;;;;;5138334;27;19927;-70
2022/04/16 06:47:35;;;;;;;;;;;7.60;99.90;;;;;;5119781;27;19927;-71
2022/04/16 06:50:02;;;;;;;;;;;7.60;99.90;;;;;;5136777;27;19923;-69
2022/04/16 06:52:27;;;;;;;;;;;7.60;99.90;;;;;;5119464;27;19923;-69
2022/04/16 06:54:55;;;;;;;;;;;7.60;99.90;;;;;;5120036;27;20306;-69
2022/04/16 06:57:20;;;;;;;;;;;8.40;99.90;;;;;;5137988;27;20358;-70
2022/04/16 07:00:06;;;;;;;;;;;7.70;99.90;;;;;;5119878;27;19974;-70
2022/04/16 07:02:32;;;;;;;;;;;7.70;99.90;;;;;;5119291;27;20282;-69
2022/04/16 07:04:58;;;;;;;;;;;7.80;99.90;;;;;;5119565;27;19923;-69
2022/04/16 07:07:23;;;;;;;;;;;8.30;99.90;;;;;;5119363;27;19927;-69
2022/04/16 07:09:49;;;;;;;;;;;7.80;99.90;;;;;;5137804;27;20401;-70
2022/04/16 07:12:15;;;;;;;;;;;7.90;99.90;;;;;;5137696;27;19974;-69
2022/04/16 07:14:41;;;;;;;;;;;8.00;99.90;;;;;;5119567;27;19923;-69
2022/04/16 07:17:07;;;;;;;;;;;9.10;99.90;;;;;;5137406;27;19935;-69
2022/04/16 07:19:33;;;;;;;;;;;8.00;99.90;;;;;;5137271;27;19923;-71
2022/04/16 07:21:59;;;;;;;;;;;8.80;99.90;;;;;;5137461;27;19931;-70
2022/04/16 07:24:25;;;;;;;;;;;8.30;99.90;;;;;;5137516;27;19923;-69
2022/04/16 07:26:53;;;;;;;;;;;9.10;99.90;;;;;;5137489;27;20008;-69
2022/04/16 07:29:19;;;;;;;;;;;8.20;99.90;;;;;;5137384;27;19930;-69
2022/04/16 07:31:44;;;;;;;;;;;8.30;99.90;;;;;;5136925;27;20054;-70
2022/04/16 07:34:10;;;;;;;;;;;8.30;99.90;;;;;;5118748;27;19977;-68
2022/04/16 07:36:35;;;;;;;;;;;8.40;99.90;;;;;;5137073;27;19952;-70
2022/04/16 07:39:01;;;;;;;;;;;8.40;99.90;;;;;;5137211;27;19924;-68
2022/04/16 07:41:26;;;;;;;;;;;8.40;99.90;;;;;;5137128;27;19924;-70
2022/04/16 07:43:52;;;;;;;;;;;8.50;99.90;;;;;;5118726;27;19929;-68
2022/04/16 07:46:21;;;;;;;;;;;9.40;99.90;;;;;;5136965;27;20383;-69
2022/04/16 07:48:47;;;;;;;;;;;8.50;99.90;;;;;;5136811;27;19923;-69
2022/04/16 07:51:12;;;;;;;;;;;8.50;99.90;;;;;;5136305;27;19931;-70
2022/04/16 07:53:38;;;;;;;;;;;8.70;99.90;;;;;;5136724;27;20626;-69
2022/04/16 07:56:03;;;;;;;;;;;8.60;99.90;;;;;;5137006;27;20310;-69
2022/04/16 07:58:29;;;;;;;;;;;8.70;99.90;;;;;;5136848;27;19924;-69
2022/04/16 08:00:54;;;;;;;;;;;8.80;99.90;;;;;;5136616;27;19931;-69
2022/04/16 08:03:20;;;;;;;;;;;8.80;99.90;;;;;;5136643;27;19990;-69
2022/04/16 08:05:46;;;;;;;;;;;8.80;99.90;;;;;;5136584;27;20369;-71
2022/04/16 08:08:12;;;;;;;;;;;8.80;99.90;;;;;;5136460;27;19923;-71
2022/04/16 08:10:37;;;;;;;;;;;8.90;99.90;;;;;;5136697;27;20370;-70
2022/04/16 08:13:05;;;;;;;;;;;9.90;99.80;;;;;;5136454;27;19924;-71
2022/04/16 08:15:31;;;;;;;;;;;8.90;99.90;;;;;;5136469;27;19992;-69
2022/04/16 08:17:56;;;;;;;;;;;10.30;99.90;;;;;;5136209;27;20026;-70
2022/04/16 08:20:22;;;;;;;;;;;10.10;96.90;;;;;;5136198;27;19931;-70
2022/04/16 08:22:48;;;;;;;;;;;9.10;99.90;;;;;;5117947;27;19987;-71
2022/04/16 08:27:49;;;;;;;;;;;9.70;99.90;;;;;;5136235;27;20298;-70
2022/04/16 08:30:26;;;;;;;;;;;9.50;99.90;;;;;;5135965;27;19924;-68
2022/04/16 08:32:52;;;;;;;;;;;9.20;99.90;;;;;;5100662;27;20013;-70
2022/04/16 08:35:19;;;;;;;;;;;9.20;99.90;;;;;;5117882;27;19966;-70
2022/04/16 08:37:46;;;;;;;;;;;10.10;99.90;;;;;;5117728;27;20363;-70
2022/04/16 08:40:12;;;;;;;;;;;9.40;99.90;;;;;;5118005;27;20328;-69
2022/04/16 08:42:38;;;;;;;;;;;9.40;99.90;;;;;;5117902;27;20382;-68
2022/04/16 08:45:05;;;;;;;;;;;9.40;99.90;;;;;;5135847;27;19930;-69
2022/04/16 08:47:31;;;;;;;;;;;9.50;99.90;;;;;;5117389;27;20360;-69
2022/04/16 08:49:56;;;;;;;;;;;9.90;99.90;;;;;;5135581;27;19923;-69
2022/04/16 08:52:23;;;;;;;;;;;9.60;99.90;;;;;;5117521;27;20385;-71
2022/04/16 08:54:49;;;;;;;;;;;9.90;99.90;;;;;;5117725;27;19959;-71
2022/04/16 08:57:15;;;;;;;;;;;9.70;99.90;;;;;;5117632;27;20478;-70
2022/04/16 08:59:47;;;;;;;;;;;9.90;99.90;;;;;;5135653;27;19930;-70
2022/04/16 09:02:13;;;;;;;;;;;9.80;99.90;;;;;;5117106;27;20465;-71
2022/04/16 09:04:39;;;;;;;;;;;10.40;99.60;;;;;;5134916;27;19931;-70
2022/04/16 09:07:05;;;;;;;;;;;10.40;99.90;;;;;;5135254;27;20014;-67
2022/04/16 09:09:30;;;;;;;;;;;10.00;99.90;;;;;;5135495;27;19923;-68
2022/04/16 09:11:56;;;;;;;;;;;10.10;91.30;;;;;;5135389;27;20298;-70
2022/04/16 09:14:34;;;;;;;;;;;10.90;99.90;;;;;;5135179;27;19967;-69
2022/04/16 09:17:00;;;;;;;;;;;10.20;99.90;;;;;;5135114;27;19966;-70
2022/04/16 09:19:28;;;;;;;;;;;10.80;99.90;;;;;;5135013;27;19935;-71
2022/04/16 09:21:54;;;;;;;;;;;10.30;99.90;;;;;;5135353;27;19930;-71
2022/04/16 09:24:20;;;;;;;;;;;11.10;99.90;;;;;;5116969;27;19924;-69
2022/04/16 09:26:48;;;;;;;;;;;10.40;99.90;;;;;;5135130;27;20413;-70
2022/04/16 09:29:14;;;;;;;;;;;10.40;99.90;;;;;;5134063;27;19981;-69
2022/04/16 09:31:41;;;;;;;;;;;10.70;99.90;;;;;;5152781;27;19930;-70
2022/04/16 09:34:07;;;;;;;;;;;10.60;99.90;;;;;;5155316;27;19923;-69
2022/04/16 09:36:38;;;;;;;;;;;10.70;99.90;;;;;;5137569;27;20416;-70
2022/04/16 09:39:04;;;;;;;;;;;10.80;99.90;;;;;;5155786;27;19923;-69
2022/04/16 09:41:33;;;;;;;;;;;10.80;99.90;;;;;;5137443;27;20417;-71
2022/04/16 09:43:59;;;;;;;;;;;10.90;99.90;;;;;;5155595;27;20297;-69
2022/04/16 09:46:26;;;;;;;;;;;12.00;95.60;;;;;;5155501;27;19925;-70
2022/04/16 09:48:54;;;;;;;;;;;11.00;96.00;;;;;;5155198;27;19927;-70
2022/04/16 09:51:23;;;;;;;;;;;11.10;99.90;;;;;;5155228;27;20394;-71
2022/04/16 09:53:50;;;;;;;;;;;12.00;99.90;;;;;;5155457;27;19930;-70
2022/04/16 09:56:16;;;;;;;;;;;11.30;99.90;;;;;;5155433;27;20017;-68
2022/04/16 09:58:44;;;;;;;;;;;11.50;99.90;;;;;;5155408;27;19923;-68
2022/04/16 10:01:11;;;;;;;;;;;11.50;99.90;;;;;;5155187;27;20263;-69
2022/04/16 10:03:38;;;;;;;;;;;11.50;83.00;;;;;;5155085;27;20369;-71
2022/04/16 10:06:03;;;;;;;;;;;12.50;90.00;;;;;;5155395;27;20366;-69
2022/04/16 10:08:31;;;;;;;;;;;11.60;93.00;;;;;;5155326;27;19923;-70
2022/04/16 10:10:58;;;;;;;;;;;11.80;99.90;;;;;;5155349;27;20320;-70
2022/04/16 10:13:23;;;;;;;;;;;11.80;98.80;;;;;;5136850;27;20014;-69
2022/04/16 10:15:59;;;;;;;;;;;11.90;82.40;;;;;;5158769;27;20003;-70
2022/04/16 10:18:25;;;;;;;;;;;12.00;95.10;;;;;;5159260;27;19946;-69
2022/04/16 10:20:55;;;;;;;;;;;13.00;92.40;;;;;;5159430;27;19958;-69
2022/04/16 10:23:27;;;;;;;;;;;12.20;83.50;;;;;;5141183;27;20439;-69
2022/04/16 10:25:59;;;;;;;;;;;12.30;77.50;;;;;;5159346;27;19968;-69
2022/04/16 10:28:25;;;;;;;;;;;12.30;83.80;;;;;;5159149;27;19923;-72
2022/04/16 10:30:54;;;;;;;;;;;12.40;71.30;;;;;;5158935;27;19923;-70
2022/04/16 10:33:21;;;;;;;;;;;12.50;63.80;;;;;;5159146;27;19930;-69
2022/04/16 10:35:56;;;;;;;;;;;12.60;74.30;;;;;;5140915;27;20019;-69
2022/04/16 10:38:25;;;;;;;;;;;12.60;69.00;;;;;;5158963;27;19923;-70
2022/04/16 10:40:58;;;;;;;;;;;12.70;73.90;;;;;;5140844;27;20381;-69
2022/04/16 10:43:30;;;;;;;;;;;12.80;62.60;;;;;;5158852;27;19988;-70
2022/04/16 10:46:02;;;;;;;;;;;12.80;68.10;;;;;;5159026;27;19981;-69
2022/04/16 10:48:29;;;;;;;;;;;12.90;71.90;;;;;;5158632;27;20405;-69
2022/04/16 10:50:56;;;;;;;;;;;12.90;68.70;;;;;;5158786;27;19923;-69
2022/04/16 10:53:32;;;;;;;;;;;13.00;80.00;;;;;;5158724;27;19923;-70
2022/04/16 10:56:14;;;;;;;;;;;13.00;68.40;;;;;;5158610;27;19983;-72
2022/04/16 10:58:40;;;;;;;;;;;13.00;72.90;;;;;;5140320;27;20283;-69
2022/04/16 11:01:07;;;;;;;;;;;13.10;60.60;;;;;;5140538;27;20001;-70
2022/04/16 11:03:36;;;;;;;;;;;13.10;60.60;;;;;;5158583;27;19929;-71
2022/04/16 11:06:05;;;;;;;;;;;13.50;68.20;;;;;;5158542;27;19923;-68
2022/04/16 11:08:33;;;;;;;;;;;13.30;62.00;;;;;;5140252;27;19930;-70
2022/04/16 11:10:58;;;;;;;;;;;13.30;64.70;;;;;;5158301;27;19923;-71
2022/04/16 11:13:29;;;;;;;;;;;13.40;65.30;;;;;;5140038;27;19960;-71
2022/04/16 11:15:55;;;;;;;;;;;13.40;63.50;;;;;;5158258;27;19948;-69
2022/04/16 11:18:20;;;;;;;;;;;13.50;64.40;;;;;;5158261;27;19923;-70
2022/04/16 11:20:55;;;;;;;;;;;13.50;65.10;;;;;;5158266;27;19971;-70
2022/04/16 11:23:27;;;;;;;;;;;13.50;62.70;;;;;;5122665;27;19923;-71
2022/04/16 11:34:17;;;;;;;;;;;13.50;55.80;;;;;;5156993;27;20038;-70
2022/04/16 11:36:44;;;;;;;;;;;13.60;54.80;;;;;;5157749;27;19930;-69
2022/04/16 11:39:16;;;;;;;;;;;13.60;55.30;;;;;;5122240;27;19923;-70
2022/04/16 11:41:50;;;;;;;;;;;13.60;55.20;;;;;;5139118;27;20326;-70
2022/04/16 11:44:15;;;;;;;;;;;13.70;54.90;;;;;;5157519;27;19934;-70
2022/04/16 11:46:41;;;;;;;;;;;13.70;52.90;;;;;;5157386;27;20297;-70
2022/04/16 11:49:09;;;;;;;;;;;13.70;54.70;;;;;;5138662;27;19978;-70
2022/04/16 11:51:38;;;;;;;;;;;13.70;51.30;;;;;;5157467;27;19923;-68
2022/04/16 11:54:03;;;;;;;;;;;13.80;52.70;;;;;;5138752;27;19971;-71
2022/04/16 11:56:29;;;;;;;;;;;13.90;55.90;;;;;;5157479;27;19927;-71
2022/04/16 11:58:54;;;;;;;;;;;13.80;54.70;;;;;;5138372;27;19922;-70
2022/04/16 12:01:21;;;;;;;;;;;13.90;59.10;;;;;;5138336;27;19924;-70
2022/04/16 12:03:48;;;;;;;;;;;13.90;57.60;;;;;;5157296;27;20381;-71
2022/04/16 12:06:14;;;;;;;;;;;13.90;53.60;;;;;;5139101;27;19923;-72
2022/04/16 12:08:40;;;;;;;;;;;14.00;57.60;;;;;;5157034;27;20026;-70
2022/04/16 12:11:06;;;;;;;;;;;14.20;55.60;;;;;;5157010;27;20309;-71
2022/04/16 12:13:36;;;;;;;;;;;14.10;57.10;;;;;;5138626;27;19976;-69
2022/04/16 12:16:18;;;;;;;;;;;14.10;50.70;;;;;;5156338;27;19930;-69
2022/04/16 12:18:46;;;;;;;;;;;14.10;53.50;;;;;;5156831;27;19923;-70
2022/04/16 12:21:16;;;;;;;;;;;14.10;57.40;;;;;;5138531;27;20380;-70
2022/04/16 12:23:44;;;;;;;;;;;14.20;57.10;;;;;;5156641;27;20305;-68
2022/04/16 12:26:10;;;;;;;;;;;14.20;51.40;;;;;;5156568;27;19975;-69
2022/04/16 12:28:37;;;;;;;;;;;14.20;54.60;;;;;;5138290;27;19927;-71
2022/04/16 12:31:03;;;;;;;;;;;14.30;58.80;;;;;;5156432;27;19945;-70
2022/04/16 12:33:29;;;;;;;;;;;14.30;52.20;;;;;;5137919;27;19922;-71
2022/04/16 12:35:57;;;;;;;;;;;14.30;51.60;;;;;;5156516;27;20006;-71
2022/04/16 12:38:24;;;;;;;;;;;14.30;55.90;;;;;;5156436;27;19930;-72
2022/04/16 12:40:51;;;;;;;;;;;14.30;53.10;;;;;;5138168;27;19923;-71
2022/04/16 12:43:17;;;;;;;;;;;14.30;55.60;;;;;;5156274;27;20366;-71
2022/04/16 12:45:43;;;;;;;;;;;14.30;53.20;;;;;;5156310;27;19923;-70
2022/04/16 12:48:09;;;;;;;;;;;14.30;52.70;;;;;;5156202;27;19930;-71
2022/04/16 12:50:35;;;;;;;;;;;14.30;51.40;;;;;;5156348;27;19930;-69
2022/04/16 12:53:01;;;;;;;;;;;14.30;50.60;;;;;;5155844;27;20014;-69
2022/04/16 12:55:29;;;;;;;;;;;14.30;52.30;;;;;;5137970;27;19962;-70
2022/04/16 12:57:55;;;;;;;;;;;14.30;51.90;;;;;;5155758;27;19923;-69
2022/04/16 13:00:21;;;;;;;;;;;14.30;49.60;;;;;;5137847;27;19923;-70
2022/04/16 13:02:46;;;;;;;;;;;14.30;48.70;;;;;;5137108;27;19923;-70
2022/04/16 13:05:14;;;;;;;;;;;14.30;51.40;;;;;;5137918;27;19967;-69
2022/04/16 13:07:40;;;;;;;;;;;14.40;52.30;;;;;;5137585;27;19923;-70
2022/04/16 13:10:06;;;;;;;;;;;14.40;55.40;;;;;;5155987;27;19927;-71
2022/04/16 13:12:33;;;;;;;;;;;14.40;52.20;;;;;;5132324;27;19923;-70
2022/04/16 13:14:59;;;;;;;;;;;14.90;52.80;;;;;;5155152;27;19923;-69
2022/04/16 13:17:25;;;;;;;;;;;14.40;52.80;;;;;;5122781;27;19923;-69
2022/04/16 13:19:50;;;;;;;;;;;14.50;56.00;;;;;;5117645;27;19923;-73
2022/04/16 13:22:16;;;;;;;;;;;14.50;54.00;;;;;;5145641;27;19927;-75
2022/04/16 13:24:41;;;;;;;;;;;14.50;49.20;;;;;;5154265;27;19923;-72
2022/04/16 13:27:07;;;;;;;;;;;14.50;51.20;;;;;;5155458;27;19927;-72
2022/04/16 13:29:33;;;;;;;;;;;14.50;54.30;;;;;;5155497;27;19923;-68
2022/04/16 13:31:59;;;;;;;;;;;14.60;52.50;;;;;;5155051;27;19930;-72
2022/04/16 13:34:25;;;;;;;;;;;14.60;50.50;;;;;;5155381;27;19923;-70
2022/04/16 13:36:51;;;;;;;;;;;14.60;53.10;;;;;;5155572;27;19926;-70
2022/04/16 13:42:02;;;;;;;;;;;14.60;50.60;;;;;;5155287;27;19930;-72
2022/04/16 13:44:28;;;;;;;;;;;14.70;51.80;;;;;;5155490;27;19968;-71
2022/04/16 13:46:53;;;;;;;;;;;14.70;52.50;;;;;;5155337;27;19923;-71
2022/04/16 13:49:19;;;;;;;;;;;14.70;51.80;;;;;;5154816;27;20009;-69
2022/04/16 13:51:45;;;;;;;;;;;14.70;48.80;;;;;;5155466;27;20315;-72
2022/04/16 13:54:11;;;;;;;;;;;14.70;48.60;;;;;;5136728;27;19966;-69
2022/04/16 13:56:37;;;;;;;;;;;14.70;50.40;;;;;;5154969;27;19923;-72
2022/04/16 13:59:03;;;;;;;;;;;14.70;47.40;;;;;;5155581;27;19930;-72
2022/04/16 14:01:38;;;;;;;;;;;14.70;49.00;;;;;;5154933;27;20322;-69
2022/04/16 14:04:04;;;;;;;;;;;14.80;51.80;;;;;;5136237;27;19927;-69
2022/04/16 14:06:29;;;;;;;;;;;14.80;53.20;;;;;;5136752;27;20255;-69
2022/04/16 14:08:56;;;;;;;;;;;14.80;49.60;;;;;;5153392;27;20004;-69
2022/04/16 14:11:22;;;;;;;;;;;14.90;53.30;;;;;;5147503;27;19930;-70
2022/04/16 14:13:47;;;;;;;;;;;14.90;49.00;;;;;;5136335;27;19923;-72
2022/04/16 14:16:14;;;;;;;;;;;15.00;50.00;;;;;;5136761;27;19930;-70
2022/04/16 14:18:39;;;;;;;;;;;15.10;49.80;;;;;;5154912;27;19948;-70
2022/04/16 14:21:07;;;;;;;;;;;15.20;52.60;;;;;;5154883;27;19931;-70
2022/04/16 14:23:36;;;;;;;;;;;15.20;49.70;;;;;;5154615;27;20018;-72
2022/04/16 14:26:05;;;;;;;;;;;15.30;49.00;;;;;;5154670;27;19930;-69
2022/04/16 14:28:32;;;;;;;;;;;15.30;49.20;;;;;;5154891;27;20285;-72
2022/04/16 14:30:58;;;;;;;;;;;15.30;47.50;;;;;;5136480;27;19923;-70
2022/04/16 14:33:24;;;;;;;;;;;15.30;46.30;;;;;;5136420;27;19967;-72
2022/04/16 14:35:50;;;;;;;;;;;16.00;47.60;;;;;;5154803;27;19923;-70
2022/04/16 14:38:17;;;;;;;;;;;16.00;48.40;;;;;;5154682;27;19934;-70
2022/04/16 14:40:43;;;;;;;;;;;15.40;48.00;;;;;;5154686;27;20309;-72
2022/04/16 14:43:11;;;;;;;;;;;15.50;46.30;;;;;;5136422;27;19923;-71
2022/04/16 14:45:37;;;;;;;;;;;15.60;44.80;;;;;;5136482;27;20011;-71
2022/04/16 14:48:03;;;;;;;;;;;15.60;48.20;;;;;;5154712;27;19996;-69